Time;durP1;ratioP1;P1;durP2;ratioP2;P2;SDS_P1;SDS_P2;PMS_P1;PMS_P2;Temp;Humidity;BMP_temperature;BMP_pressure;BME280_temperature;BME280_humidity;BME280_pressure;Samples;Min_cycle;Max_cycle;Signal;HPM_P1;HPM_P2
2020/12/08 00:01:36;;;;;;;1.35;0.30;;;3.50;91.00;;;;;;5099359;28;20024;-72
2020/12/08 00:04:02;;;;;;;1.85;0.40;;;3.50;91.10;;;;;;5099204;28;20032;-72
2020/12/08 00:06:28;;;;;;;2.53;0.57;;;3.60;92.10;;;;;;5081361;28;20115;-72
2020/12/08 00:08:54;;;;;;;3.53;1.20;;;3.80;92.00;;;;;;5099862;28;20095;-72
2020/12/08 00:11:20;;;;;;;5.05;1.35;;;3.80;88.50;;;;;;5099186;28;20016;-72
2020/12/08 00:13:46;;;;;;;7.25;2.17;;;3.90;88.20;;;;;;5081138;28;20043;-72
2020/12/08 00:16:12;;;;;;;3.20;0.90;;;4.00;87.60;;;;;;5099166;28;20020;-72
2020/12/08 00:18:38;;;;;;;2.35;0.70;;;4.10;88.80;;;;;;5099132;28;20319;-72
2020/12/08 00:21:05;;;;;;;1.98;0.40;;;4.20;90.40;;;;;;5099027;28;20099;-72
2020/12/08 00:23:37;;;;;;;3.08;0.40;;;4.20;90.00;;;;;;5098911;28;20028;-72
2020/12/08 00:26:02;;;;;;;0.50;0.10;;;4.20;90.80;;;;;;5098901;28;20075;-72
2020/12/08 00:28:28;;;;;;;2.17;0.47;;;4.10;90.70;;;;;;5099020;28;20059;-72
2020/12/08 00:30:54;;;;;;;0.25;0.15;;;4.00;90.10;;;;;;5098857;28;20048;-72
2020/12/08 00:33:20;;;;;;;1.02;0.25;;;3.90;92.20;;;;;;5098869;28;20028;-72
2020/12/08 00:35:50;;;;;;;3.45;0.30;;;3.90;91.50;;;;;;5098719;28;20097;-72
2020/12/08 00:38:15;;;;;;;3.40;0.85;;;3.80;90.60;;;;;;5080789;28;20028;-72
2020/12/08 00:40:41;;;;;;;2.92;0.55;;;3.80;89.80;;;;;;5098640;28;20481;-72
2020/12/08 00:43:07;;;;;;;2.13;0.40;;;3.80;88.50;;;;;;5098603;28;20043;-72
2020/12/08 00:45:34;;;;;;;0.80;0.20;;;3.90;88.70;;;;;;5098422;28;20024;-72
2020/12/08 00:47:59;;;;;;;1.45;0.30;;;3.90;89.40;;;;;;5098519;28;20031;-72
2020/12/08 00:50:25;;;;;;;11.82;2.33;;;3.80;90.50;;;;;;5080551;28;20032;-72
2020/12/08 00:52:50;;;;;;;3.80;0.80;;;3.80;90.30;;;;;;5080461;28;20021;-72
2020/12/08 00:55:18;;;;;;;1.50;0.20;;;3.80;90.40;;;;;;5098768;28;20052;-72
2020/12/08 00:57:44;;;;;;;1.15;0.40;;;3.80;87.40;;;;;;5098297;28;20032;-72
2020/12/08 01:00:09;;;;;;;0.90;0.40;;;3.90;86.70;;;;;;5098254;28;20065;-72
2020/12/08 01:02:35;;;;;;;1.60;0.20;;;4.10;85.30;;;;;;5098227;28;20055;-72
2020/12/08 01:05:01;;;;;;;2.28;0.30;;;4.30;84.40;;;;;;5098057;28;20031;-72
2020/12/08 01:07:26;;;;;;;0.82;0.20;;;4.40;83.60;;;;;;5098135;28;20024;-72
2020/12/08 01:09:52;;;;;;;2.67;0.40;;;4.50;83.20;;;;;;5080132;28;20024;-72
2020/12/08 01:12:18;;;;;;;2.72;0.30;;;4.60;82.90;;;;;;5098157;28;20031;-72
2020/12/08 01:14:43;;;;;;;2.22;0.30;;;4.60;82.10;;;;;;5098460;28;20028;-72
2020/12/08 01:17:09;;;;;;;1.08;0.30;;;4.70;82.60;;;;;;5097947;28;20091;-72
2020/12/08 01:19:35;;;;;;;1.90;0.40;;;4.80;82.10;;;;;;5079973;28;20036;-72
2020/12/08 01:22:01;;;;;;;2.03;0.43;;;4.80;81.70;;;;;;5098041;28;20102;-71
2020/12/08 01:24:26;;;;;;;0.73;0.30;;;4.80;81.10;;;;;;5097695;28;20040;-72
2020/12/08 01:26:55;;;;;;;0.60;0.30;;;4.90;80.80;;;;;;5097824;28;20315;-72
2020/12/08 01:29:21;;;;;;;1.20;0.30;;;4.90;81.50;;;;;;5079780;28;20024;-72
2020/12/08 01:31:49;;;;;;;2.30;1.00;;;4.90;83.10;;;;;;5097799;28;20157;-72
2020/12/08 01:34:15;;;;;;;0.77;0.30;;;4.80;82.00;;;;;;5097836;28;20077;-72
2020/12/08 01:36:40;;;;;;;4.60;0.30;;;4.70;83.30;;;;;;5079560;28;20032;-72
2020/12/08 01:39:06;;;;;;;1.50;0.35;;;4.70;83.30;;;;;;5097901;28;20019;-72
2020/12/08 01:41:32;;;;;;;0.85;0.30;;;4.60;82.10;;;;;;5079571;28;20455;-72
2020/12/08 01:43:57;;;;;;;1.08;0.40;;;4.60;81.50;;;;;;5097448;28;20032;-72
2020/12/08 01:46:27;;;;;;;1.15;0.30;;;4.60;81.30;;;;;;5097552;28;20359;-71
2020/12/08 01:48:55;;;;;;;1.45;0.40;;;4.60;80.60;;;;;;5097439;28;20024;-72
2020/12/08 01:51:22;;;;;;;1.10;0.20;;;4.60;82.00;;;;;;5097354;28;20427;-72
2020/12/08 01:53:50;;;;;;;1.27;0.47;;;4.60;81.90;;;;;;5096906;28;20047;-72
2020/12/08 01:56:16;;;;;;;1.88;0.35;;;4.60;82.10;;;;;;5097143;28;20036;-71
2020/12/08 01:58:42;;;;;;;1.30;0.28;;;4.70;81.50;;;;;;5097305;28;20374;-71
2020/12/08 02:01:10;;;;;;;2.00;0.50;;;4.70;81.50;;;;;;5097198;28;20099;-72
2020/12/08 02:03:37;;;;;;;1.08;0.40;;;4.80;80.80;;;;;;5096950;28;20016;-72
2020/12/08 02:06:02;;;;;;;0.25;0.20;;;4.90;80.10;;;;;;5097087;28;20032;-72
2020/12/08 02:08:29;;;;;;;1.70;0.28;;;4.90;80.00;;;;;;5097155;28;20095;-72
2020/12/08 02:10:55;;;;;;;4.65;0.57;;;4.90;80.80;;;;;;5097051;28;20327;-72
2020/12/08 02:13:21;;;;;;;2.15;0.38;;;4.90;81.50;;;;;;5097034;28;20020;-72
2020/12/08 02:15:47;;;;;;;3.95;0.47;;;4.80;82.80;;;;;;5096937;28;20062;-72
2020/12/08 02:18:13;;;;;;;3.50;0.50;;;4.70;84.30;;;;;;5096991;28;20020;-72
2020/12/08 02:20:40;;;;;;;2.65;0.30;;;4.60;85.10;;;;;;5097215;28;20323;-72
2020/12/08 02:23:06;;;;;;;0.90;0.30;;;4.60;84.80;;;;;;5096850;28;20028;-72
2020/12/08 02:25:31;;;;;;;0.43;0.30;;;4.50;85.80;;;;;;5096560;28;20484;-72
2020/12/08 02:27:57;;;;;;;4.53;0.60;;;4.50;86.00;;;;;;5096957;28;20096;-72
2020/12/08 02:30:23;;;;;;;3.60;0.70;;;4.50;86.20;;;;;;5096856;28;20024;-71
2020/12/08 02:32:49;;;;;;;1.73;0.40;;;4.50;86.70;;;;;;5078870;28;20030;-72
2020/12/08 02:35:15;;;;;;;1.17;0.40;;;4.60;85.90;;;;;;5096713;28;20036;-72
2020/12/08 02:37:41;;;;;;;0.63;0.20;;;4.60;86.00;;;;;;5096796;28;20016;-71
2020/12/08 02:40:07;;;;;;;2.92;1.10;;;4.60;86.40;;;;;;5096726;28;20070;-72
2020/12/08 02:42:32;;;;;;;0.75;0.20;;;4.70;85.70;;;;;;5096751;28;20103;-72
2020/12/08 02:44:58;;;;;;;2.00;0.43;;;4.70;86.40;;;;;;5096869;28;20032;-72
2020/12/08 02:47:24;;;;;;;2.00;0.30;;;4.70;86.20;;;;;;5096670;28;20474;-72
2020/12/08 02:49:54;;;;;;;0.95;0.30;;;4.70;86.60;;;;;;5096668;28;20095;-72
2020/12/08 02:52:23;;;;;;;5.70;3.80;;;4.70;86.90;;;;;;5096756;28;20020;-72
2020/12/08 02:54:49;;;;;;;7.13;5.80;;;4.70;86.80;;;;;;5096829;28;20032;-72
2020/12/08 02:57:15;;;;;;;6.43;2.05;;;4.70;85.00;;;;;;5096557;28;20085;-71
2020/12/08 02:59:41;;;;;;;0.30;0.20;;;4.80;81.80;;;;;;5096597;28;20021;-71
2020/12/08 03:02:07;;;;;;;2.33;0.52;;;4.90;79.80;;;;;;5096879;28;20024;-71
2020/12/08 03:04:32;;;;;;;7.32;2.17;;;4.90;79.50;;;;;;5078525;28;20033;-71
2020/12/08 03:07:01;;;;;;;2.22;0.57;;;4.90;83.50;;;;;;5098097;28;20347;-71
2020/12/08 03:09:29;;;;;;;1.38;0.38;;;4.90;85.30;;;;;;5100934;28;20050;-71
2020/12/08 03:11:54;;;;;;;1.75;0.40;;;4.90;84.40;;;;;;5100640;28;20115;-72
2020/12/08 03:14:20;;;;;;;2.17;0.50;;;4.80;85.80;;;;;;5100320;28;20059;-71
2020/12/08 03:16:45;;;;;;;1.88;0.35;;;4.90;86.90;;;;;;5100295;28;20323;-71
2020/12/08 03:19:11;;;;;;;1.45;0.35;;;4.90;86.70;;;;;;5100301;28;20327;-71
2020/12/08 03:21:38;;;;;;;2.58;0.40;;;4.90;86.30;;;;;;5100412;28;20032;-71
2020/12/08 03:24:04;;;;;;;1.17;0.50;;;4.90;86.20;;;;;;5100273;28;20048;-71
2020/12/08 03:26:30;;;;;;;1.17;0.50;;;4.80;85.40;;;;;;5100411;28;20069;-71
2020/12/08 03:28:56;;;;;;;1.45;0.40;;;4.90;83.10;;;;;;5100189;28;20032;-72
2020/12/08 03:31:22;;;;;;;1.13;0.40;;;4.90;86.50;;;;;;5100018;28;20024;-71
2020/12/08 03:33:47;;;;;;;2.50;0.35;;;4.90;86.70;;;;;;5100110;28;20030;-71
2020/12/08 03:36:20;;;;;;;0.60;0.20;;;4.90;81.30;;;;;;5082004;28;20524;-71
2020/12/08 03:38:52;;;;;;;2.05;0.40;;;4.90;84.30;;;;;;5100472;28;20055;-71
2020/12/08 03:41:22;;;;;;;1.30;0.40;;;5.00;80.60;;;;;;5099877;28;20028;-71
2020/12/08 03:43:49;;;;;;;1.52;0.70;;;5.20;78.70;;;;;;5099791;28;20024;-71
2020/12/08 03:46:25;;;;;;;0.40;0.30;;;5.30;78.90;;;;;;5081762;28;20116;-71
2020/12/08 03:48:53;;;;;;;2.25;0.43;;;5.50;76.20;;;;;;5081741;28;20296;-71
2020/12/08 03:51:21;;;;;;;4.38;0.45;;;5.80;74.70;;;;;;5099630;28;20027;-71
2020/12/08 03:53:47;;;;;;;1.90;0.45;;;5.90;76.10;;;;;;5099661;28;20430;-71
2020/12/08 03:56:14;;;;;;;1.30;0.40;;;6.00;73.50;;;;;;5099561;28;20077;-71
2020/12/08 03:58:43;;;;;;;3.25;0.38;;;6.00;72.90;;;;;;5099531;28;20052;-71
2020/12/08 04:01:17;;;;;;;1.67;0.65;;;6.00;74.20;;;;;;5099440;28;20031;-71
2020/12/08 04:03:45;;;;;;;2.17;0.30;;;6.00;75.30;;;;;;5099291;28;20021;-71
2020/12/08 04:06:12;;;;;;;3.78;0.60;;;6.00;77.80;;;;;;5099344;28;20017;-71
2020/12/08 04:08:42;;;;;;;3.20;0.70;;;5.90;76.50;;;;;;5099327;28;20024;-71
2020/12/08 04:11:12;;;;;;;1.33;0.60;;;5.80;75.90;;;;;;5099613;28;20017;-71
2020/12/08 04:13:37;;;;;;;1.40;0.68;;;5.60;76.80;;;;;;5099097;28;20052;-71
2020/12/08 04:16:03;;;;;;;1.83;0.50;;;5.40;77.00;;;;;;5099182;28;20415;-71
2020/12/08 04:18:29;;;;;;;0.75;0.32;;;5.20;77.70;;;;;;5098846;28;20028;-71
2020/12/08 04:20:55;;;;;;;3.38;0.60;;;5.10;76.40;;;;;;5099335;28;20043;-71
2020/12/08 04:23:22;;;;;;;1.50;0.45;;;5.30;77.60;;;;;;5099017;28;20032;-71
2020/12/08 04:25:49;;;;;;;2.10;0.50;;;5.30;75.20;;;;;;5098695;28;20183;-71
2020/12/08 04:28:15;;;;;;;3.33;0.40;;;5.40;76.90;;;;;;5099262;28;20409;-71
2020/12/08 04:30:41;;;;;;;3.90;0.50;;;5.50;75.90;;;;;;5098864;28;20027;-71
2020/12/08 04:33:07;;;;;;;2.33;0.30;;;5.50;74.90;;;;;;5098839;28;20431;-71
2020/12/08 04:35:42;;;;;;;0.90;0.28;;;5.70;76.50;;;;;;5080793;28;20024;-71
2020/12/08 04:38:08;;;;;;;2.78;0.52;;;5.70;75.80;;;;;;5098802;28;20034;-71
2020/12/08 04:40:36;;;;;;;1.77;0.40;;;5.80;74.70;;;;;;5098715;28;20074;-71
2020/12/08 04:43:07;;;;;;;0.70;0.40;;;5.80;76.40;;;;;;5098640;28;20130;-71
2020/12/08 04:45:33;;;;;;;2.80;0.55;;;5.80;75.10;;;;;;5098747;28;20082;-71
2020/12/08 04:48:06;;;;;;;1.27;0.40;;;5.80;75.10;;;;;;5098548;28;20048;-71
2020/12/08 04:50:32;;;;;;;1.92;0.60;;;5.70;75.10;;;;;;5098538;28;20028;-71
2020/12/08 04:52:58;;;;;;;1.23;0.40;;;5.70;74.50;;;;;;5098404;28;20030;-71
2020/12/08 04:55:24;;;;;;;2.42;0.47;;;5.70;73.70;;;;;;5098499;28;20305;-71
2020/12/08 04:57:52;;;;;;;1.60;0.60;;;5.70;76.50;;;;;;5098381;28;20024;-71
2020/12/08 05:00:18;;;;;;;2.95;0.45;;;5.60;75.80;;;;;;5098313;28;20437;-71
2020/12/08 05:02:54;;;;;;;4.07;0.60;;;5.60;75.70;;;;;;5098269;28;20024;-71
2020/12/08 05:05:22;;;;;;;;;;;5.60;73.60;;;;;;5098636;28;20026;-71
2020/12/08 05:07:53;;;;;;;1.85;0.40;;;5.70;73.10;;;;;;5098326;28;19911;-71
2020/12/08 05:10:28;;;;;;;2.88;0.60;;;5.80;73.30;;;;;;5098305;28;20035;-71
2020/12/08 05:12:55;;;;;;;1.25;0.40;;;5.80;71.90;;;;;;5098231;28;20031;-71
2020/12/08 05:15:23;;;;;;;0.52;0.25;;;6.00;71.00;;;;;;5097984;28;20091;-71
2020/12/08 05:17:52;;;;;;;1.75;0.50;;;6.10;70.90;;;;;;5097985;28;20023;-71
2020/12/08 05:20:19;;;;;;;3.53;0.40;;;6.10;71.00;;;;;;5097972;28;20024;-71
2020/12/08 05:22:56;;;;;;;2.67;0.40;;;6.20;69.80;;;;;;5097844;28;20032;-71
2020/12/08 05:25:25;;;;;;;2.65;0.65;;;6.20;69.20;;;;;;5097574;28;20040;-71
2020/12/08 05:27:52;;;;;;;2.60;0.40;;;6.30;69.80;;;;;;5097937;28;20121;-71
2020/12/08 05:30:18;;;;;;;1.20;0.35;;;6.40;69.70;;;;;;5096947;28;20026;-71
2020/12/08 05:32:43;;;;;;;1.55;0.47;;;6.40;70.00;;;;;;5097688;28;20027;-71
2020/12/08 05:35:14;;;;;;;3.03;0.40;;;6.30;70.90;;;;;;5097632;28;20097;-71
2020/12/08 05:37:42;;;;;;;1.77;0.40;;;6.30;71.20;;;;;;5097581;28;20035;-71
2020/12/08 05:40:13;;;;;;;2.45;0.40;;;6.30;70.00;;;;;;5079490;28;20031;-71
2020/12/08 05:42:41;;;;;;;3.78;0.40;;;6.30;70.40;;;;;;5097481;28;20420;-71
2020/12/08 05:45:09;;;;;;;2.63;0.55;;;6.30;70.10;;;;;;5097329;28;20032;-71
2020/12/08 05:47:48;;;;;;;1.05;0.50;;;6.30;70.80;;;;;;5097484;28;20031;-71
2020/12/08 05:50:15;;;;;;;2.55;0.73;;;6.40;70.50;;;;;;5079410;28;20024;-71
2020/12/08 05:52:52;;;;;;;2.20;0.38;;;6.40;70.50;;;;;;5097352;28;20024;-71
2020/12/08 05:55:20;;;;;;;2.00;1.02;;;6.50;69.40;;;;;;5097776;28;20035;-71
2020/12/08 05:57:47;;;;;;;3.55;0.30;;;6.60;69.00;;;;;;5097410;28;20134;-71
2020/12/08 06:00:42;;;;;;;3.83;0.50;;;6.60;70.30;;;;;;5097266;28;20020;-71
2020/12/08 06:03:20;;;;;;;3.58;0.40;;;6.60;70.70;;;;;;5076690;28;20047;-71
2020/12/08 06:05:47;;;;;;;1.63;0.45;;;6.60;68.90;;;;;;5097112;28;20046;-71
2020/12/08 06:08:15;;;;;;;1.38;0.30;;;6.60;71.00;;;;;;5097213;28;20020;-71
2020/12/08 06:10:52;;;;;;;1.05;0.40;;;6.60;73.20;;;;;;5079419;28;20039;-71
2020/12/08 06:13:31;;;;;;;4.38;0.47;;;6.40;72.80;;;;;;5097174;28;20028;-71
2020/12/08 06:16:00;;;;;;;1.73;0.35;;;6.40;74.30;;;;;;5097214;28;20031;-71
2020/12/08 06:18:48;;;;;;;1.65;0.73;;;6.30;70.60;;;;;;5096989;28;20039;-71
2020/12/08 06:21:26;;;;;;;3.40;0.47;;;6.30;74.10;;;;;;5097279;28;20099;-71
2020/12/08 06:24:02;;;;;;;0.85;0.30;;;6.20;74.30;;;;;;5096714;28;20038;-71
2020/12/08 06:26:36;;;;;;;1.98;0.40;;;6.20;70.80;;;;;;5096928;28;20024;-71
2020/12/08 06:29:07;;;;;;;1.73;0.50;;;6.20;71.80;;;;;;5097009;28;20077;-71
2020/12/08 06:31:44;;;;;;;2.53;0.50;;;6.10;73.50;;;;;;5096816;28;20016;-71
2020/12/08 06:34:17;;;;;;;2.40;0.40;;;6.10;72.90;;;;;;5097027;28;20056;-71
2020/12/08 06:36:43;;;;;;;1.05;0.40;;;6.10;75.80;;;;;;5079183;28;20366;-71
2020/12/08 06:39:10;;;;;;;1.65;0.30;;;6.10;70.90;;;;;;5096799;28;20028;-71
2020/12/08 06:41:38;;;;;;;2.42;0.35;;;6.00;74.30;;;;;;5099558;28;20016;-71
2020/12/08 06:44:05;;;;;;;1.70;0.40;;;6.10;75.00;;;;;;5100835;28;20078;-71
2020/12/08 06:46:32;;;;;;;2.00;0.40;;;5.90;76.30;;;;;;5100880;28;20016;-71
2020/12/08 06:49:03;;;;;;;2.75;0.45;;;5.70;77.70;;;;;;5100872;28;20028;-71
2020/12/08 06:51:30;;;;;;;2.15;0.43;;;5.60;77.50;;;;;;5100776;28;20039;-71
2020/12/08 06:53:55;;;;;;;3.25;0.35;;;5.50;79.30;;;;;;5100839;28;20035;-71
2020/12/08 06:56:32;;;;;;;1.38;0.30;;;5.30;80.60;;;;;;5082764;28;20024;-71
2020/12/08 06:58:58;;;;;;;4.63;0.50;;;5.20;82.40;;;;;;5100808;28;20355;-71
2020/12/08 07:01:24;;;;;;;2.22;0.40;;;5.00;83.10;;;;;;5082672;28;20048;-71
2020/12/08 07:03:52;;;;;;;2.92;0.63;;;5.00;81.80;;;;;;5100460;28;20293;-71
2020/12/08 07:06:19;;;;;;;0.98;0.40;;;5.00;83.50;;;;;;5100568;28;20288;-71
2020/12/08 07:08:51;;;;;;;2.45;0.30;;;5.00;82.50;;;;;;5100565;28;20098;-71
2020/12/08 07:11:21;;;;;;;1.17;0.35;;;5.00;82.70;;;;;;5100451;28;20096;-71
2020/12/08 07:13:59;;;;;;;2.05;0.40;;;5.00;82.80;;;;;;5100451;28;20024;-71
2020/12/08 07:16:27;;;;;;;1.38;0.30;;;4.90;82.70;;;;;;5100555;28;20023;-71
2020/12/08 07:18:54;;;;;;;0.70;0.30;;;4.90;81.50;;;;;;5100769;28;20024;-71
2020/12/08 07:21:20;;;;;;;1.45;0.30;;;5.00;81.00;;;;;;5100235;28;20091;-71
2020/12/08 07:23:50;;;;;;;0.30;0.10;;;4.90;79.50;;;;;;5100282;28;20054;-72
2020/12/08 07:26:19;;;;;;;0.73;0.20;;;5.00;79.30;;;;;;5100202;28;20055;-71
2020/12/08 07:28:44;;;;;;;0.30;0.20;;;5.00;81.60;;;;;;5082185;28;20081;-71
2020/12/08 07:31:24;;;;;;;0.40;0.22;;;5.10;81.80;;;;;;5100057;28;20028;-71
2020/12/08 07:33:50;;;;;;;1.17;0.20;;;5.20;83.70;;;;;;5100134;28;20028;-72
2020/12/08 07:36:27;;;;;;;1.00;0.30;;;5.10;85.70;;;;;;5099970;28;20027;-71
2020/12/08 07:38:54;;;;;;;1.88;0.60;;;5.10;83.80;;;;;;5100286;28;20024;-71
2020/12/08 07:41:21;;;;;;;2.50;0.45;;;5.10;83.40;;;;;;5099845;28;20020;-71
2020/12/08 07:43:47;;;;;;;0.85;0.20;;;5.10;84.00;;;;;;5099877;28;20150;-71
2020/12/08 07:46:20;;;;;;;0.95;0.30;;;5.00;86.50;;;;;;5099732;28;20471;-71
2020/12/08 07:48:49;;;;;;;2.58;0.63;;;5.00;82.90;;;;;;5099731;28;20020;-71
2020/12/08 07:51:17;;;;;;;3.75;0.40;;;5.10;82.50;;;;;;5099687;28;20016;-71
2020/12/08 07:53:43;;;;;;;0.50;0.20;;;5.10;84.40;;;;;;5081122;28;20315;-71
2020/12/08 07:56:09;;;;;;;1.05;0.25;;;5.20;84.50;;;;;;5099569;28;20028;-72
2020/12/08 07:58:34;;;;;;;1.25;0.30;;;5.20;85.80;;;;;;5099537;28;20052;-71
2020/12/08 08:01:00;;;;;;;0.50;0.30;;;5.10;87.30;;;;;;5099498;28;20059;-71
2020/12/08 08:03:26;;;;;;;0.57;0.20;;;5.10;85.80;;;;;;5099425;28;20077;-71
2020/12/08 08:05:52;;;;;;;0.55;0.40;;;5.20;85.80;;;;;;5099267;28;20478;-71
2020/12/08 08:08:21;;;;;;;2.15;0.40;;;5.10;86.30;;;;;;5099327;28;20444;-71
2020/12/08 08:10:47;;;;;;;0.30;0.20;;;5.10;87.60;;;;;;5099304;28;20021;-72
2020/12/08 08:13:13;;;;;;;1.83;0.75;;;5.00;85.50;;;;;;5099225;28;20099;-71
2020/12/08 08:15:39;;;;;;;0.60;0.20;;;5.00;84.40;;;;;;5099170;28;20378;-71
2020/12/08 08:18:07;;;;;;;0.35;0.20;;;5.10;83.80;;;;;;5099195;28;20102;-71
2020/12/08 08:20:35;;;;;;;2.10;0.57;;;5.20;85.30;;;;;;5099176;28;20315;-72
2020/12/08 08:23:00;;;;;;;0.95;0.30;;;5.20;87.10;;;;;;5098936;28;20032;-72
2020/12/08 08:25:29;;;;;;;0.60;0.30;;;5.20;86.70;;;;;;5098700;28;20097;-72
2020/12/08 08:27:55;;;;;;;0.93;0.30;;;5.20;87.20;;;;;;5099165;28;20028;-72
2020/12/08 08:30:20;;;;;;;1.27;0.40;;;5.10;89.00;;;;;;5081012;28;20031;-72
2020/12/08 08:32:46;;;;;;;0.45;0.10;;;5.10;87.30;;;;;;5098829;28;20316;-72
2020/12/08 08:35:13;;;;;;;1.00;0.30;;;5.10;89.60;;;;;;5098813;28;20027;-72
2020/12/08 08:37:41;;;;;;;0.60;0.30;;;4.90;88.70;;;;;;5098797;28;20028;-72
2020/12/08 08:40:07;;;;;;;2.63;0.65;;;5.00;89.10;;;;;;5098734;28;20016;-72
2020/12/08 08:42:33;;;;;;;0.47;0.20;;;5.00;88.70;;;;;;5080696;28;20324;-72
2020/12/08 08:44:59;;;;;;;0.20;0.10;;;5.00;87.40;;;;;;5098480;28;20403;-72
2020/12/08 08:47:24;;;;;;;1.23;0.40;;;5.20;85.20;;;;;;5098605;28;20111;-71
2020/12/08 08:49:50;;;;;;;0.47;0.15;;;5.30;84.20;;;;;;5098591;28;20024;-71
2020/12/08 08:52:15;;;;;;;1.20;0.10;;;5.30;86.60;;;;;;5098463;28;20403;-71
2020/12/08 08:54:41;;;;;;;3.15;2.03;;;5.30;87.50;;;;;;5098297;28;20127;-72
2020/12/08 08:57:07;;;;;;;7.45;4.95;;;5.40;86.50;;;;;;5098354;28;20074;-72
2020/12/08 08:59:32;;;;;;;4.78;2.33;;;5.40;86.80;;;;;;5098359;28;20020;-72
2020/12/08 09:01:58;;;;;;;4.93;1.90;;;5.40;86.00;;;;;;5098289;28;20028;-72
2020/12/08 09:04:24;;;;;;;0.25;0.20;;;5.50;85.50;;;;;;5097038;28;20046;-71
2020/12/08 09:06:49;;;;;;;0.98;0.30;;;5.50;85.60;;;;;;5098182;28;20031;-71
2020/12/08 09:09:15;;;;;;;0.10;0.10;;;5.50;85.30;;;;;;5098220;28;20028;-71
2020/12/08 09:11:41;;;;;;;0.10;0.10;;;5.60;84.30;;;;;;5098134;28;20118;-71
2020/12/08 09:14:08;;;;;;;0.10;0.10;;;5.60;83.10;;;;;;5098017;28;20020;-71
2020/12/08 09:16:33;;;;;;;0.10;0.10;;;5.70;83.30;;;;;;5098010;28;20419;-71
2020/12/08 09:18:59;;;;;;;0.10;0.10;;;5.70;80.60;;;;;;5098257;28;20039;-71
2020/12/08 09:21:25;;;;;;;0.10;0.10;;;5.80;81.80;;;;;;5079920;28;20066;-71
2020/12/08 09:23:51;;;;;;;0.10;0.10;;;5.90;82.70;;;;;;5079695;28;20024;-72
2020/12/08 09:26:16;;;;;;;0.00;0.00;;;5.90;83.30;;;;;;5097856;28;20115;-72
2020/12/08 09:28:43;;;;;;;0.00;0.00;;;5.90;81.70;;;;;;5097840;28;20024;-71
2020/12/08 09:31:09;;;;;;;0.20;0.10;;;6.00;82.30;;;;;;5097768;28;20023;-72
2020/12/08 09:33:34;;;;;;;0.03;0.03;;;6.00;82.00;;;;;;5097729;28;20020;-71
2020/12/08 09:36:01;;;;;;;0.10;0.10;;;6.00;81.10;;;;;;5079642;28;20450;-72
2020/12/08 09:38:27;;;;;;;0.10;0.10;;;6.00;81.90;;;;;;5079680;28;20024;-72
2020/12/08 09:40:52;;;;;;;0.13;0.10;;;6.00;81.80;;;;;;5097602;28;20479;-72
2020/12/08 09:43:18;;;;;;;0.05;0.05;;;6.10;81.30;;;;;;5097543;28;20315;-72
2020/12/08 09:45:44;;;;;;;0.10;0.10;;;6.10;81.20;;;;;;5097900;28;20063;-72
2020/12/08 09:48:12;;;;;;;0.10;0.10;;;6.10;81.80;;;;;;5097583;28;20024;-72
2020/12/08 09:50:38;;;;;;;0.10;0.10;;;6.10;82.50;;;;;;5097449;28;20020;-72
2020/12/08 09:53:08;;;;;;;0.10;0.10;;;6.10;81.20;;;;;;5097288;28;20012;-72
2020/12/08 09:55:34;;;;;;;1.95;0.85;;;6.10;81.30;;;;;;5097497;28;20039;-71
2020/12/08 09:58:00;;;;;;;0.10;0.10;;;6.10;81.20;;;;;;5097402;28;20324;-71
2020/12/08 10:00:28;;;;;;;0.10;0.10;;;6.10;78.90;;;;;;5097306;28;20076;-71
2020/12/08 10:02:54;;;;;;;0.10;0.10;;;6.00;81.30;;;;;;5079273;28;20024;-71
2020/12/08 10:05:19;;;;;;;0.10;0.10;;;5.90;82.00;;;;;;5096785;28;20158;-71
2020/12/08 10:07:45;;;;;;;0.15;0.15;;;5.80;82.90;;;;;;5088269;28;20039;-71
2020/12/08 10:10:11;;;;;;;0.10;0.10;;;5.70;84.20;;;;;;5090941;28;20016;-71
2020/12/08 10:12:37;;;;;;;0.10;0.10;;;5.60;84.00;;;;;;5097222;28;20024;-71
2020/12/08 10:15:04;;;;;;;0.10;0.10;;;5.70;83.60;;;;;;5096673;28;20031;-72
2020/12/08 10:17:32;;;;;;;0.10;0.10;;;5.70;83.10;;;;;;5097049;28;20365;-71
2020/12/08 10:19:57;;;;;;;0.10;0.10;;;5.80;82.50;;;;;;5097020;28;20028;-71
2020/12/08 10:22:23;;;;;;;0.10;0.10;;;5.80;83.00;;;;;;5078986;28;20031;-72
2020/12/08 10:24:49;;;;;;;0.10;0.10;;;5.80;83.50;;;;;;5078709;28;20032;-72
2020/12/08 10:27:15;;;;;;;0.05;0.05;;;5.80;83.90;;;;;;5097106;28;20044;-72
2020/12/08 10:29:41;;;;;;;0.10;0.10;;;5.70;83.00;;;;;;5096943;28;20032;-72
2020/12/08 10:32:07;;;;;;;0.70;0.50;;;5.90;85.70;;;;;;5096912;28;20059;-72
2020/12/08 10:34:32;;;;;;;1.90;1.27;;;5.90;84.90;;;;;;5096935;28;20032;-72
2020/12/08 10:36:58;;;;;;;0.52;0.30;;;5.90;86.10;;;;;;5096846;28;20027;-72
2020/12/08 10:39:27;;;;;;;0.25;0.20;;;5.90;85.80;;;;;;5097169;28;20069;-71
2020/12/08 10:41:56;;;;;;;0.22;0.20;;;5.80;83.80;;;;;;5096770;28;20050;-71
2020/12/08 10:44:22;;;;;;;0.10;0.10;;;5.70;85.00;;;;;;5096644;28;20020;-71
2020/12/08 10:46:52;;;;;;;0.10;0.10;;;5.60;84.30;;;;;;5096768;28;20031;-71
2020/12/08 10:49:19;;;;;;;0.10;0.10;;;5.50;84.50;;;;;;5096941;28;20019;-71
2020/12/08 10:51:45;;;;;;;0.10;0.10;;;5.50;85.00;;;;;;5096646;28;20107;-71
2020/12/08 10:54:10;;;;;;;0.05;0.05;;;5.50;84.00;;;;;;5096978;28;20059;-71
2020/12/08 10:56:36;;;;;;;0.10;0.10;;;5.70;84.20;;;;;;5096669;28;20036;-71
2020/12/08 10:59:02;;;;;;;0.10;0.10;;;5.70;83.50;;;;;;5096777;28;20016;-71
2020/12/08 11:01:30;;;;;;;0.20;0.10;;;5.70;82.90;;;;;;5096765;28;20024;-72
2020/12/08 11:03:56;;;;;;;0.20;0.10;;;5.80;83.00;;;;;;5096511;28;20028;-71
2020/12/08 11:06:28;;;;;;;0.10;0.10;;;5.60;82.40;;;;;;5096612;28;20040;-71
2020/12/08 11:08:59;;;;;;;0.00;0.00;;;5.60;82.40;;;;;;5096608;28;20311;-71
2020/12/08 11:11:32;;;;;;;0.10;0.10;;;5.70;83.30;;;;;;5096515;28;20327;-71
2020/12/08 11:13:59;;;;;;;0.10;0.10;;;5.80;82.80;;;;;;5096452;28;20028;-72
2020/12/08 11:16:28;;;;;;;0.10;0.10;;;5.80;83.10;;;;;;5078467;28;20036;-71
2020/12/08 11:18:55;;;;;;;0.10;0.10;;;5.90;83.50;;;;;;5096722;28;20100;-72
2020/12/08 11:21:25;;;;;;;0.10;0.10;;;5.90;83.60;;;;;;5096431;28;20115;-71
2020/12/08 11:23:51;;;;;;;0.10;0.10;;;6.10;82.10;;;;;;5096258;28;20034;-71
2020/12/08 11:26:17;;;;;;;0.10;0.10;;;6.20;79.80;;;;;;5096364;28;20028;-72
2020/12/08 11:28:45;;;;;;;0.10;0.10;;;6.40;80.90;;;;;;5081182;28;20016;-72
2020/12/08 11:31:13;;;;;;;0.20;0.20;;;6.50;82.90;;;;;;5100121;28;20095;-71
2020/12/08 11:33:39;;;;;;;0.10;0.10;;;6.50;79.70;;;;;;5099930;28;20073;-72
2020/12/08 11:36:07;;;;;;;0.10;0.10;;;6.40;80.00;;;;;;5100000;28;20024;-72
2020/12/08 11:38:32;;;;;;;0.10;0.10;;;6.30;81.10;;;;;;5099982;28;20024;-72
2020/12/08 11:40:59;;;;;;;0.10;0.10;;;6.30;80.50;;;;;;5100032;28;20032;-72
2020/12/08 11:43:24;;;;;;;0.10;0.10;;;6.20;81.10;;;;;;5099854;28;20038;-71
2020/12/08 11:45:50;;;;;;;0.10;0.10;;;6.20;80.90;;;;;;5081686;28;20024;-72
2020/12/08 11:48:16;;;;;;;0.45;0.17;;;6.20;81.70;;;;;;5099748;28;20020;-72
2020/12/08 11:50:41;;;;;;;0.10;0.10;;;6.30;82.00;;;;;;5099766;28;20311;-72
2020/12/08 11:53:10;;;;;;;1.10;0.20;;;6.40;81.40;;;;;;5099676;28;20020;-72
2020/12/08 11:55:38;;;;;;;0.00;0.00;;;6.50;82.00;;;;;;5099595;28;20032;-72
2020/12/08 11:58:04;;;;;;;0.00;0.00;;;6.40;81.20;;;;;;5099708;28;20061;-71
2020/12/08 12:00:29;;;;;;;0.10;0.10;;;6.40;80.50;;;;;;5099837;28;20016;-71
2020/12/08 12:02:55;;;;;;;1.15;0.50;;;6.30;81.40;;;;;;5099429;28;20032;-72
2020/12/08 12:05:21;;;;;;;0.10;0.10;;;6.10;81.10;;;;;;5081374;28;20063;-71
2020/12/08 12:07:52;;;;;;;0.15;0.10;;;6.10;82.00;;;;;;5099538;28;20024;-71
2020/12/08 12:10:18;;;;;;;0.55;0.10;;;5.90;83.00;;;;;;5099323;28;20016;-71
2020/12/08 12:12:44;;;;;;;0.10;0.10;;;5.90;82.30;;;;;;5099294;28;20052;-71
2020/12/08 12:15:10;;;;;;;0.10;0.10;;;5.80;83.80;;;;;;5099200;28;20047;-71
2020/12/08 12:17:35;;;;;;;0.20;0.10;;;5.80;83.20;;;;;;5099302;28;20467;-71
2020/12/08 12:20:07;;;;;;;1.45;0.20;;;5.90;82.70;;;;;;5099175;28;20048;-71
2020/12/08 12:22:38;;;;;;;0.80;0.60;;;5.90;84.30;;;;;;5099314;28;20024;-72
2020/12/08 12:25:08;;;;;;;0.20;0.17;;;5.70;85.20;;;;;;5098889;28;20044;-72
2020/12/08 12:27:33;;;;;;;0.10;0.10;;;5.50;86.00;;;;;;5099032;28;20080;-72
2020/12/08 12:30:02;;;;;;;0.57;0.10;;;5.40;86.60;;;;;;5098984;28;20020;-71
2020/12/08 12:32:28;;;;;;;0.15;0.10;;;5.30;87.40;;;;;;5098920;28;20052;-72
2020/12/08 12:34:54;;;;;;;0.32;0.20;;;5.40;86.30;;;;;;5098841;28;20097;-72
2020/12/08 12:37:37;;;;;;;0.10;0.10;;;5.50;86.10;;;;;;5098820;28;20051;-72
2020/12/08 12:40:03;;;;;;;0.10;0.10;;;5.50;86.60;;;;;;5098987;28;20334;-72
2020/12/08 12:42:31;;;;;;;0.45;0.10;;;5.60;87.00;;;;;;5098709;28;20032;-72
2020/12/08 12:44:57;;;;;;;0.10;0.10;;;5.60;86.60;;;;;;5080621;28;20028;-72
2020/12/08 12:47:25;;;;;;;0.10;0.10;;;5.60;87.00;;;;;;5098411;28;20300;-72
2020/12/08 12:49:51;;;;;;;0.10;0.10;;;5.60;86.50;;;;;;5098572;28;20312;-72
2020/12/08 12:52:19;;;;;;;0.10;0.10;;;5.70;85.90;;;;;;5098472;28;20024;-72
2020/12/08 12:54:45;;;;;;;0.00;0.00;;;5.60;87.00;;;;;;5098809;28;20082;-71
2020/12/08 12:57:11;;;;;;;0.10;0.10;;;5.60;85.80;;;;;;5098406;28;20032;-71
2020/12/08 12:59:36;;;;;;;0.10;0.10;;;5.60;85.40;;;;;;5098417;28;20365;-72